Time;durP1;ratioP1;P1;durP2;ratioP2;P2;SDS_P1;SDS_P2;PMS_P1;PMS_P2;Temp;Humidity;BMP_temperature;BMP_pressure;BME280_temperature;BME280_humidity;BME280_pressure;Samples;Min_cycle;Max_cycle;Signal;HPM_P1;HPM_P2
2023/10/11 00:00:33;;;;;;;65.00;39.40;;;;;;;10.14;93.46;98854.13;436397;1251;107405;-42
2023/10/11 00:31:04;;;;;;;59.50;36.80;;;;;;;10.44;94.21;98822.98;436444;1247;106688;-42
2023/10/11 00:41:12;;;;;;;59.40;36.50;;;;;;;10.54;94.51;98812.38;436027;1251;434451;-40
2023/10/11 00:51:17;;;;;;;57.50;38.90;;;;;;;10.64;94.94;98801.99;436515;1247;109418;-41
2023/10/11 01:01:22;;;;;;;61.70;37.80;;;;;;;10.70;95.16;98785.61;436308;1261;99264;-41
2023/10/11 01:21:33;;;;;;;51.70;34.90;;;;;;;10.89;95.36;98771.05;435549;1250;106964;-41
2023/10/11 01:31:40;;;;;;;56.40;37.00;;;;;;;10.99;95.60;98764.90;435746;1254;99225;-41
2023/10/11 01:41:43;;;;;;;60.00;36.60;;;;;;;11.07;95.92;98760.77;435350;1251;108388;-41
2023/10/11 01:51:48;;;;;;;52.20;33.50;;;;;;;11.16;96.12;98752.10;435438;1251;99250;-41
2023/10/11 02:22:00;;;;;;;54.00;32.30;;;;;;;11.41;96.29;98740.52;435591;1263;99231;-42
2023/10/11 02:32:08;;;;;;;48.00;32.50;;;;;;;11.49;96.32;98740.17;435469;1254;108773;-41
2023/10/11 02:42:19;;;;;;;50.90;31.20;;;;;;;11.62;96.60;98732.41;435385;1263;99228;-42
2023/10/11 03:02:31;;;;;;;44.20;30.40;;;;;;;11.87;96.69;98725.15;435542;1249;108231;-41
2023/10/11 03:12:38;;;;;;;40.70;29.10;;;;;;;11.97;96.78;98714.89;435539;1254;99240;-42
2023/10/11 03:32:47;;;;;;;34.10;24.70;;;;;;;12.26;96.98;98705.88;435581;1255;97987;-41
2023/10/11 03:42:59;;;;;;;30.70;22.40;;;;;;;12.42;97.09;98712.46;435540;1254;110845;-42
2023/10/11 04:03:14;;;;;;;29.30;20.10;;;;;;;12.67;97.08;98704.08;435483;1263;99253;-42
2023/10/11 04:33:51;;;;;;;27.90;20.40;;;;;;;12.95;97.14;98690.38;435542;1264;111798;-40
2023/10/11 04:44:12;;;;;;;37.50;20.10;;;;;;;13.02;97.08;98689.48;435797;1249;107786;-41
2023/10/11 05:14:37;;;;;;;29.30;17.50;;;;;;;13.23;96.93;98682.41;435512;1255;98828;-41
2023/10/11 05:25:12;;;;;;;25.30;16.70;;;;;;;13.29;96.90;98686.18;435399;1263;111813;-42
2023/10/11 05:35:19;;;;;;;27.30;17.00;;;;;;;13.37;96.65;98690.78;435562;1249;107179;-42
2023/10/11 05:55:45;;;;;;;24.50;16.30;;;;;;;13.62;96.63;98696.84;435242;1252;108575;-41
2023/10/11 06:05:51;;;;;;;22.40;14.80;;;;;;;13.79;96.54;98697.78;435765;1250;99218;-42
2023/10/11 06:36:37;;;;;;;22.10;13.80;;;;;;;14.98;95.93;98686.21;435452;1254;98854;-41
2023/10/11 06:46:40;;;;;;;22.40;14.60;;;;;;;15.21;95.92;98687.31;435276;1255;107840;-41
2023/10/11 06:56:44;;;;;;;20.00;13.40;;;;;;;15.51;95.63;98686.58;435398;1252;101367;-41
2023/10/11 07:06:48;;;;;;;18.70;12.50;;;;;;;15.96;95.36;98689.36;435315;1262;111966;-41
2023/10/11 07:16:55;;;;;;;19.30;12.20;;;;;;;16.30;94.99;98689.80;435309;1249;108077;-42
2023/10/11 07:26:58;;;;;;;15.50;11.00;;;;;;;16.73;94.98;98693.52;435286;1249;99237;-42
2023/10/11 08:47:33;;;;;;;18.80;8.90;;;;;;;19.53;87.36;98639.98;435312;1254;110842;-42
2023/10/11 08:57:38;;;;;;;10.60;7.30;;;;;;;19.64;86.61;98634.48;435389;1249;107486;-42
2023/10/11 09:17:50;;;;;;;15.10;8.10;;;;;;;20.28;84.67;98635.23;435221;1249;107552;-41
2023/10/11 09:27:56;;;;;;;16.10;7.70;;;;;;;20.70;83.43;98635.10;435374;1251;97987;-41
2023/10/11 09:37:59;;;;;;;15.70;7.90;;;;;;;20.84;81.81;98633.15;435458;1249;111022;-41
2023/10/11 09:48:06;;;;;;;14.60;7.10;;;;;;;21.06;80.64;98626.17;435226;1249;109131;-42
2023/10/11 10:08:17;;;;;;;11.40;7.00;;;;;;;21.45;78.16;98615.20;435215;1249;108189;-40
2023/10/11 10:18:22;;;;;;;13.40;6.70;;;;;;;21.57;76.97;98615.39;435366;1252;99222;-41
2023/10/11 10:59:49;;;;;;;15.00;7.40;;;;;;;21.15;72.87;98595.89;435293;1250;108052;-42
2023/10/11 11:09:57;;;;;;;16.60;7.80;;;;;;;20.96;72.33;98594.85;435383;1249;98062;-42
2023/10/11 12:00:59;;;;;;;18.50;8.50;;;;;;;21.37;71.62;98583.09;435250;1249;97917;-42
2023/10/11 12:21:16;;;;;;;13.90;7.40;;;;;;;21.37;71.43;98562.17;435265;1249;107622;-41
2023/10/11 12:31:19;;;;;;;20.20;10.00;;;;;;;21.22;71.22;98557.41;435484;1249;99775;-41
2023/10/11 12:41:23;;;;;;;15.90;6.70;;;;;;;21.11;71.52;98557.08;435072;1249;417892;-42
2023/10/11 12:51:33;;;;;;;18.80;6.90;;;;;;;21.17;71.34;98552.83;435327;1255;99225;-42
2023/10/11 13:01:38;;;;;;;16.70;7.10;;;;;;;21.44;71.23;98542.98;435412;1249;112279;-41
2023/10/11 13:21:45;;;;;;;11.00;7.00;;;;;;;21.47;70.19;98546.50;435297;1255;99250;-41
2023/10/11 13:31:53;;;;;;;13.40;6.70;;;;;;;21.40;69.77;98535.85;435417;1250;107829;-41
2023/10/11 13:41:57;;;;;;;16.80;7.50;;;;;;;21.26;69.64;98537.31;435289;1249;99240;-43
2023/10/11 14:12:21;;;;;;;10.00;6.30;;;;;;;20.52;68.99;98527.22;435466;1249;99239;-42
2023/10/11 14:22:27;;;;;;;13.70;7.10;;;;;;;20.35;69.23;98510.42;435480;1253;108035;-42
2023/10/11 14:32:34;;;;;;;16.60;6.80;;;;;;;20.30;69.60;98506.90;435133;1249;99215;-42
2023/10/11 14:42:38;;;;;;;18.20;7.50;;;;;;;20.23;69.59;98484.58;435367;1250;111788;-41
2023/10/11 14:52:44;;;;;;;20.00;7.00;;;;;;;20.06;69.59;98483.97;435385;1249;107672;-42
2023/10/11 15:02:47;;;;;;;11.90;6.10;;;;;;;19.87;69.84;98487.23;435388;1254;99375;-43
2023/10/11 15:12:52;;;;;;;14.60;8.00;;;;;;;19.65;70.27;98497.26;435453;1249;107946;-41
2023/10/11 15:33:03;;;;;;;15.50;6.80;;;;;;;19.14;70.94;98521.69;435246;1255;110867;-42
2023/10/11 15:43:07;;;;;;;13.70;6.80;;;;;;;18.95;71.36;98521.06;435342;1252;107778;-41
2023/10/11 15:53:13;;;;;;;20.20;8.10;;;;;;;18.75;71.86;98518.69;435353;1255;99658;-42
2023/10/11 16:03:16;;;;;;;23.20;7.90;;;;;;;18.46;72.27;98522.29;435345;1252;108555;-41
2023/10/11 16:13:20;;;;;;;19.30;7.70;;;;;;;18.22;72.61;98510.10;435324;1263;99232;-41
2023/10/11 16:23:27;;;;;;;15.80;7.80;;;;;;;18.09;72.89;98514.39;435314;1252;112938;-41
2023/10/11 16:33:31;;;;;;;18.00;8.70;;;;;;;17.97;73.42;98517.76;435413;1263;107689;-42
2023/10/11 16:53:39;;;;;;;22.50;8.80;;;;;;;17.74;73.86;98532.21;435453;1255;108202;-41
2023/10/11 17:03:43;;;;;;;19.30;7.60;;;;;;;17.69;74.10;98534.75;435374;1253;98867;-42
2023/10/11 17:13:47;;;;;;;16.40;8.80;;;;;;;17.64;74.37;98533.66;435502;1253;110320;-40
2023/10/11 17:23:50;;;;;;;27.40;10.00;;;;;;;17.48;74.68;98531.61;435477;1262;107116;-42
2023/10/11 17:33:54;;;;;;;20.60;8.10;;;;;;;17.39;74.75;98522.41;435387;1254;98818;-43
2023/10/11 17:43:57;;;;;;;20.60;7.30;;;;;;;17.35;74.99;98521.05;435302;1254;106663;-42
2023/10/11 18:04:05;;;;;;;17.10;9.00;;;;;;;17.12;75.59;98530.89;435427;1251;112147;-41
2023/10/11 18:14:10;;;;;;;19.00;8.20;;;;;;;17.02;75.72;98533.16;435223;1252;107740;-41
2023/10/11 18:24:14;;;;;;;19.30;9.30;;;;;;;17.00;76.18;98525.48;435492;1260;99249;-41
2023/10/11 18:34:18;;;;;;;20.30;10.10;;;;;;;16.96;76.27;98525.72;435295;1263;107861;-42
2023/10/11 18:44:21;;;;;;;49.80;30.40;;;;;;;16.92;76.55;98523.98;435272;1254;99250;-41
2023/10/11 19:04:27;;;;;;;23.50;9.70;;;;;;;16.87;76.81;98523.73;435385;1251;107756;-42
2023/10/11 19:14:32;;;;;;;17.60;9.10;;;;;;;16.83;77.02;98519.16;436424;1253;99354;-42
2023/10/11 19:34:46;;;;;;;30.70;13.90;;;;;;;16.80;77.39;98508.75;435587;1251;97930;-42
2023/10/11 19:44:49;;;;;;;24.30;9.00;;;;;;;16.76;77.20;98505.06;435525;1254;111201;-40
2023/10/11 19:54:53;;;;;;;33.70;11.20;;;;;;;16.72;77.25;98495.05;435434;1253;109419;-41
2023/10/11 20:04:57;;;;;;;25.20;10.60;;;;;;;16.67;77.62;98482.56;435607;1251;98358;-41
2023/10/11 20:25:09;;;;;;;19.30;8.60;;;;;;;16.65;77.89;98482.23;435515;1251;98846;-42
2023/10/11 20:35:23;;;;;;;19.20;9.80;;;;;;;16.67;77.94;98475.05;435418;1251;111962;-42
2023/10/11 21:05:38;;;;;;;21.30;7.00;;;;;;;16.65;78.54;98468.08;435488;1251;108088;-41
2023/10/11 21:25:52;;;;;;;16.80;8.50;;;;;;;16.69;78.85;98463.12;435482;1253;111580;-42
2023/10/11 21:35:58;;;;;;;19.40;8.10;;;;;;;16.62;79.17;98453.15;435638;1264;107589;-40
2023/10/11 21:46:04;;;;;;;15.20;7.80;;;;;;;16.60;79.15;98448.72;435461;1254;98894;-42
2023/10/11 21:56:07;;;;;;;16.00;7.30;;;;;;;16.59;79.49;98434.64;435594;1250;107635;-42
2023/10/11 22:06:17;;;;;;;18.00;7.50;;;;;;;16.60;79.84;98425.17;435532;1252;99638;-42
2023/10/11 22:16:20;;;;;;;14.80;7.60;;;;;;;16.62;80.21;98418.82;435645;1253;111736;-41
2023/10/11 22:26:27;;;;;;;14.40;7.00;;;;;;;16.62;80.02;98414.92;435531;1254;107828;-42
2023/10/11 22:36:30;;;;;;;15.30;7.80;;;;;;;16.56;80.40;98408.70;435480;1254;99244;-42
2023/10/11 22:46:34;;;;;;;17.70;6.70;;;;;;;16.47;80.58;98408.14;435378;1249;108448;-42
2023/10/11 22:56:39;;;;;;;11.80;6.50;;;;;;;16.42;80.41;98401.59;435507;1254;99412;-42
2023/10/11 23:06:42;;;;;;;15.70;7.20;;;;;;;16.36;80.55;98395.06;435609;1253;110468;-41
2023/10/11 23:26:53;;;;;;;16.70;6.40;;;;;;;16.30;81.05;98398.11;435601;1254;98254;-42
2023/10/11 23:36:58;;;;;;;18.10;7.50;;;;;;;16.24;81.18;98395.04;435553;1254;109206;-42
